Aktualne dane pomiarowe

Uwaga, wersja testowa! Automatyczne pobieranie danych za pomocą narzędzi lub skryptów to umożliwiających jest zabronione.

Dane meteo z obszaru Polski uzyskane na podstawie depesz SYNOP pobieranych co godzinę z NWS. Najedź myszką na symbol przedstawiony w tabeli, aby uzyskać informacje co do jego znaczenia. Prosimy pamiętać, że to testowa wersja strony, która jeszcze nie jest ukończona. Stworzono również jest krótki FAQ dotyczący korzystania z tej podstrony Anomalie temperatury w chwili obecnej odniesione są do okresu referencyjnego 1951-2016. Okres ten będzie później zmieniony na 1981-2010. Kliknij ikonę aby pobrać plik CSV. Kliknij ikonę aby wygenerować mapę synoptyczną dla danego terminu.

Wybierz Datę:    

        

Bielsko-Biała (12600)

Dane terminowe dla wybranej stacji. Kliknij datę, aby otrzymać dane z tego terminu dla wszystkich stacji.

TemperaturaZachmurzenieWiatrCiśnienieOpadyPogoda
 Data t td wb tx tn tg rh  Nt Nl Cl Cm Ch ws wd g1 g2 wx mslp ppp ch 24h 12h t ww ww w1 w2  
2019-06-09 23:00:00 18.9 15.0 16.2--- 7820.0wx-wx5wx--51020.9 974.3 -0.9---------
2019-06-09 22:00:00 19.0 15.1 16.3--- 7830.0wx-wx4wx--41021.3 974.7 -0.6---------
2019-06-09 21:00:00 20.1 14.9 16.6--- 7230.0wx-wxwx4wx--41021.4 974.9 -0.3---------
2019-06-09 20:00:00 19.8 14.2 16.1--- 7030.0wxwxwxwxwx4wx--41021.7 975.2 -0.1---------
2019-06-09 19:00:00 21.2 14.4 16.8--- 6530.0wxwxwxwxwx4wx---1021.6 975.3 -0.6---------
2019-06-09 18:00:00 21.9 13.5 16.6 24.0 18.3- 5940.0wxwxwxwxwx2wx--21021.4 975.2 -1.1- 0.012------
2019-06-09 17:00:00 22.9 11.9 16.2--- 5040.0wxwxwxwxwx4wx--41021.3 975.3 -1.5---------
2019-06-09 16:00:00 23.0 10.8 15.7--- 4640.0wxwxwxwx4wx--41022.0 975.9 -1.3---------
2019-06-09 15:00:00 23.8 10.1 15.7--- 4250.0wxwxwxwxwx4wx--41022.2 976.3 -1.4---------
2019-06-09 14:00:00 23.5 8.7 15.0--- 3950.0wxwxwxwx5wx--51022.8 976.8 -1.5---------
2019-06-09 13:00:00 23.5 9.1 15.2--- 4050.0wxwxwxwx5wx--51023.2 977.2 -1.7---------
2019-06-09 12:00:00 22.6 7.6 14.1--- 3850.0wxwxwxwx6wx-1061023.9 977.7 -1.7- 0.06------
2019-06-09 11:00:00 22.3 8.4 14.3--- 4150.0wxwxwxwxwx5wx101051024.6 978.3 -1.0---------
2019-06-09 10:00:00 21.6 8.1 13.9--- 4250.0wx-wxwx5wx--51025.3 978.9 -0.8---------
2019-06-09 09:00:00 20.6 7.2 13.1--- 4250.0wx-wx6wx--61026.0 979.4 -0.5---------
2019-06-09 08:00:00 20.3 8.0 13.3--- 4540.0wx-5wx--51025.9 979.3 -0.7---------
2019-06-09 07:00:00 19.4 10.1 13.8--- 5540.0wx-3wx--31026.5 979.7 0.0---------
2019-06-09 06:00:00 18.3 10.9 13.7 18.3 10.4 9 6240.0wx-3wx--31026.9 979.9 0.4- 0.012----- 9.0
2019-06-09 05:00:00 16.3 10.8 12.8--- 7040.0wxwxwxwx3wx---1027.3 980.0 0.8---------
2019-06-09 04:00:00 13.1 10.6 11.4--- 8530.0wxwxwxwx3wx--31027.6 979.7 0.7---------
2019-06-09 03:00:00 10.5 8.6 9.2--- 8850.0wx-wx2wx--21027.8 979.5 0.7---------
2019-06-09 02:00:00 10.7 8.1 9.0--- 8450.0wx-2wx--21027.5 979.2 0.4---------
2019-06-09 01:00:00 12.1 8.6 9.9--- 7950.0wx-2wx--21027.0 979.0 0.3---------
2019-06-09 00:00:00 12.3 8.0 9.6--- 7550.0wx-1wx--11026.8 978.8 0.5- 0.06------
2019-06-08 23:00:00 14.2 7.3 10.1--- 6350.0wx-wx1wx--11026.4 978.8 0.9---------
2019-06-08 22:00:00 15.7 9.8 12.0--- 6850.0wxwxwxwx1wx--11026.1 978.7 1.6---------
2019-06-08 21:00:00 16.5 7.7 11.4--- 5650.0wxwxwxwx2wx---1025.5 978.3 1.9---------
2019-06-08 20:00:00 17.2 8.3 12.0--- 5650.0wxwxwx1wx--11025.0 977.9 1.7---------
2019-06-08 19:00:00 17.6 9.7 12.8--- 6050.0wxwxwx1wx--11024.1 977.1 1.2---------
2019-06-08 18:00:00 18.2 9.8 13.1 25.8 18.2- 5850.0wxwxwx3wx-931023.3 976.4 0.7--12wx-w1--
2019-06-08 17:00:00 18.3 9.9 13.2--- 5840.0wxwxwxwx6wx--61023.0 976.2 1.6---------
2019-06-08 16:00:00 18.7 11.7 14.3--- 6430.0wxwxwxwx5wx--51022.6 975.9 2.7---------
2019-06-08 15:00:00 19.6 11.4 14.5--- 5920.0wxwxwx6wx-961022.3 975.7 2.8---wx---
2019-06-08 14:00:00 21.0 13.4 16.2--- 6220.0wxwxwx5wx-951020.9 974.6 1.9---------
2019-06-08 13:00:00 24.4 15.6 18.7--- 5830.0wxwxwx4wx--41018.9 973.2 1.0---------
2019-06-08 12:00:00 24.8 16.0 19.0--- 5830.0wxwxwx3wx--31018.5 972.9 0.8- 0.06------
2019-06-08 11:00:00 25.5 13.7 18.1--- 4830.0wxwxwx3wx--31018.2 972.7 1.0---------
2019-06-08 10:00:00 25.3 15.0 18.7--- 5330.0wxwxwx3wx--31017.7 972.2 1.0---------
2019-06-08 09:00:00 24.0 15.5 18.5--- 5930.0wxwxwx3wx--31017.8 972.1 1.4---------
2019-06-08 08:00:00 24.4 15.1 18.4--- 5630.0wxwxwxwx2wx--21017.3 971.7 1.6---------
2019-06-08 07:00:00 23.2 15.5 18.2--- 6230.0wxwxwxwx1wx--11017.0 971.2 1.8---------
2019-06-08 06:00:00 22.6 15.7 18.0 23.4 16.2 15 6530.0wx-wx1wx--11016.6 970.7 1.6- 0.012----- 9.2
2019-06-08 05:00:00 20.2 15.4 17.0--- 7430.0wx-wx2wx--21016.3 970.1 1.0---------
2019-06-08 04:00:00 18.0 15.1 16.0--- 8320.0wx-wx4wx--41015.9 969.4 0.5---wx---
2019-06-08 03:00:00 16.4 14.9 15.3--- 9115.0wx-wx3wx--31015.9 969.1 0.1---wx---
2019-06-08 02:00:00 16.3 15.0 15.4--- 929.0wx-2wx--21015.9 969.1 -0.1---wx---
2019-06-08 01:00:00 16.8 15.5 15.9--- 928.0wx-3wx--31015.6 968.9 -0.5---wx---
2019-06-08 00:00:00 17.1 16.0 16.3--- 938.0wx-2wx--21015.7 969.0 -0.3- 0.06------
15.5 ms

 

Print Friendly, PDF & Email